Estación de Río Negro

Ultimos registro cada 15 minutos 44
Estación Fecha / Hora Temperatura Humedad Lluvia Velocidad Dirección Radiación Presion
44 Río Negro 09-05-2026 10:45 8,8 89,7 0 0 222 415,6 1020,3
43 Río Negro 09-05-2026 10:30 7,9 92,6 0 0 213 383,1 1020
42 Río Negro 09-05-2026 10:15 6,7 96,6 0 0 248 349,4 1020,2
41 Río Negro 09-05-2026 10:00 4,9 99,9 0 0 278 310,6 1020,2
40 Río Negro 09-05-2026 09:45 3,6 100 0 0 305 93,1 1020,4
39 Río Negro 09-05-2026 09:30 2,4 100 0 0 220 68,1 1020,5
38 Río Negro 09-05-2026 09:15 2,6 100 0 0 156 200,6 1020,5
37 Río Negro 09-05-2026 09:00 1,5 100 0 0 230 183,1 1020,4
36 Río Negro 09-05-2026 08:45 2,2 100 0 0 282 138,1 1020,6
35 Río Negro 09-05-2026 08:30 1 100 0 0 282 89,4 1020,9
34 Río Negro 09-05-2026 08:15 -0,9 100 0 0 233 19,4 1020,6
33 Río Negro 09-05-2026 08:00 -0,8 100 0 0 145 11,9 1020,6
32 Río Negro 09-05-2026 07:45 -0,3 100 0 0 145 3,1 1020,6
31 Río Negro 09-05-2026 07:30 -0,4 100 0 0 143 0,6 1020,7
30 Río Negro 09-05-2026 07:15 -0,2 100 0 0 143 0,6 1020,4
29 Río Negro 09-05-2026 07:00 0,1 100 0 0 145 0,6 1020,5
28 Río Negro 09-05-2026 06:45 0,4 100 0 0 219 0,6 1020,4
27 Río Negro 09-05-2026 06:30 0,8 100 0 0 248 0,6 1020,6
26 Río Negro 09-05-2026 06:15 0,9 100 0 0 250 0,6 1020,6
25 Río Negro 09-05-2026 06:00 1,2 100 0 0 253 0,6 1020,6
24 Río Negro 09-05-2026 05:45 1 100 0 0 213 0,6 1020,8
23 Río Negro 09-05-2026 05:30 1,3 100 0 0 248 0,6 1020,8
22 Río Negro 09-05-2026 05:15 1,6 100 0 0 226 0,6 1021
21 Río Negro 09-05-2026 05:00 0,8 100 0 0 194 0,6 1021
20 Río Negro 09-05-2026 04:45 0,9 100 0 0 159 0,6 1021
19 Río Negro 09-05-2026 04:30 1,2 100 0 0 111 0,6 1021
18 Río Negro 09-05-2026 04:15 0,9 99,9 0 0 142 0,6 1021
17 Río Negro 09-05-2026 04:00 1,8 100 0 0 236 0,6 1021,3
16 Río Negro 09-05-2026 03:45 1,6 99,8 0 0 209 0,6 1021,3
15 Río Negro 09-05-2026 03:30 1,7 99,8 0 0 180 0,6 1021,5
14 Río Negro 09-05-2026 03:15 2,2 99,8 0 0 170 0,6 1021,5
13 Río Negro 09-05-2026 03:00 2,9 99,6 0 0 233 0,6 1021,6
12 Río Negro 09-05-2026 02:45 2,4 99,4 0 0 204 0,6 1021,7
11 Río Negro 09-05-2026 02:30 2,7 99,4 0 0 222 0,6 1021,7
10 Río Negro 09-05-2026 02:15 2,2 99,3 0 0 314 0,6 1021,6
9 Río Negro 09-05-2026 02:00 2,4 98,9 0 0 246 0,6 1021,7
8 Río Negro 09-05-2026 01:45 2,8 98,6 0 0 215 0,6 1022
7 Río Negro 09-05-2026 01:30 2,7 98,6 0 0 227 0,6 1021,9
6 Río Negro 09-05-2026 01:15 2,9 98,4 0 0 257 0,6 1021,8
5 Río Negro 09-05-2026 01:00 2,9 98,2 0 0 181 0,6 1021,8
4 Río Negro 09-05-2026 00:45 2,9 97,9 0 0 157 0,6 1022
3 Río Negro 09-05-2026 00:30 2,5 96,9 0 0 223 0,6 1021,9
2 Río Negro 09-05-2026 00:15 2,8 96 0 0 258 0,6 1021,8
1 Río Negro 09-05-2026 00:00 3,5 95,9 0 0 251 0,6 1021,9